Bayfield, CO

4:20 PM MDT on October 25, 2014 (GMT -0600)
Durango-La Plata County | Change Station
CLOSE
Current Station
Airport
Location: Durango,
Elevation: 6683 ft
Nearby Weather Stations

Elev 6683 ft 37.14 °N, 107.76 °W | Updated 27 minutes ago

Clear
Clear
71 °F
Feels Like 71 °F
N
7
Wind Variable Wind from WSW

Today
High -- | Low -- °F
--% Chance of Precip.
Yesterday
High -- | Low -- °F
Precip. -- in
7:28 AM 6:20 PM
Waxing Crescent, 4% visible
Pressure 30.14 in
Visibility 10.0 miles
Clouds Clear
Dew Point 30 °F
Humidity 22%
Rainfall 0.00 in
Snow Depth Not available.
UV 2 out of 12
Pollen 2.60 out of 12
Air Quality Not available.
Flu Activity Sporadic
METAR KDRO 252153Z AUTO 25006KT 10SM CLR 22/M01 A3028 RMK AO2 SLP204 T02171011

More Conditions Fewer Conditions

Pressure 30.14 in
Visibility 10.0 miles
Clouds Clear
Dew Point 30 °F
Humidity 22%
Rainfall 0.00 in
Snow Depth Not available.
UV 2 out of 12
Pollen 2.60 out of 12
Air Quality Not available.
Flu Activity Sporadic
METAR KDRO 252153Z AUTO 25006KT 10SM CLR 22/M01 A3028 RMK AO2 SLP204 T02171011

More Conditions Fewer Conditions

10-Day Weather Forecast

Almanac

Astronomy

Oct. 25, 2014 Rise Set
Actual Time 7:28 AM MDT 6:20 PM MDT
Civil Twilight 7:01 AM MDT 6:47 PM MDT
Nautical Twilight 6:30 AM MDT 7:17 PM MDT
Astronomical Twilight 6:00 AM MDT 7:47 PM MDT
Moon 9:08 AM MDT 7:47 PM MDT
Length of Visible Light 11h 45m
Length of Day
10h 52m
Tomorrow will be 2m 12s shorter.
Waxing Crescent, 4% of the Moon is Illuminated
Today
Waxing Crescent
Oct 30
First Quarter
Nov 6
Full
Nov 14
Last Quarter
Nov 22
New

Today's Extremes

State Highs State Lows

Community

WunderPhotos

Upload Photos

1,765,015 photos uploaded!

Nearby

Snow Depth

Station Depth Elevation
Columbus Basin 0 in 10785 ft
Spud Mountain 0 in 10660 ft
Mineral Creek 1 in 10040 ft
El Diente Peak 0 in 10200 ft
Lone Cone 0 in 9600 ft

Earthquake Activity

City Distance Mag. Time & Date
No recent earthquake activity has been reported nearby.
Minimum magnitude displayed is 2.5.

Coastal Water Temperatures

Place Temperature
No Stations Reporting

Nearby Weather Stations